createdAt,value
2023-05-11T00:18:09.114Z,9.30
2023-05-11T00:29:20.769Z,8.50
2023-05-11T00:39:52.396Z,9.60
2023-05-11T00:50:59.629Z,9.90
2023-05-11T01:01:24.646Z,8.30
2023-05-11T01:12:23.134Z,9.50
2023-05-11T01:23:35.607Z,10.60
2023-05-11T01:34:32.805Z,9.40
2023-05-11T01:45:20.611Z,8.40
2023-05-11T01:55:43.017Z,9.10
2023-05-11T02:06:57.083Z,9.60
2023-05-11T02:17:38.221Z,10.00
2023-05-11T02:40:01.252Z,10.30
2023-05-11T02:52:09.256Z,8.60
2023-05-11T03:03:31.902Z,15.40
2023-05-11T03:14:41.772Z,10.20
2023-05-11T03:25:39.453Z,10.10
2023-05-11T03:35:54.984Z,10.60
2023-05-11T03:59:07.437Z,8.90
2023-05-11T04:10:01.930Z,6.30
2023-05-11T04:31:01.084Z,4.30
2023-05-11T04:41:45.893Z,7.80
2023-05-11T05:02:54.732Z,3.70
2023-05-11T05:13:11.724Z,5.90
2023-05-11T05:23:52.763Z,5.40
2023-05-11T05:35:16.259Z,6.70
2023-05-11T05:46:05.549Z,5.40
2023-05-11T05:56:18.325Z,6.70
2023-05-11T06:06:38.547Z,5.00
2023-05-11T06:16:58.797Z,4.60
2023-05-11T06:27:16.621Z,7.20
2023-05-11T06:37:32.285Z,5.20
2023-05-11T06:47:36.999Z,5.70
2023-05-11T06:57:43.688Z,4.80
2023-05-11T07:07:47.284Z,4.90
2023-05-11T07:17:52.302Z,5.40
2023-05-11T07:28:36.270Z,5.80
2023-05-11T07:38:39.930Z,4.80
2023-05-11T07:48:43.442Z,4.90
2023-05-11T07:58:46.961Z,5.20
2023-05-11T08:09:34.494Z,5.60
2023-05-11T08:19:41.831Z,4.80
2023-05-11T08:29:45.806Z,5.50
2023-05-11T08:39:49.426Z,6.40
2023-05-11T08:49:55.166Z,6.00
2023-05-11T09:00:03.093Z,4.60
2023-05-11T09:10:49.451Z,4.80
2023-05-11T09:20:53.829Z,4.60
2023-05-11T09:31:58.112Z,6.10
2023-05-11T09:43:18.401Z,4.20
2023-05-11T09:53:34.973Z,5.90
2023-05-11T10:04:20.516Z,11.90
2023-05-11T10:14:27.879Z,5.70
2023-05-11T10:24:52.245Z,4.10
2023-05-11T10:34:57.157Z,6.50
2023-05-11T10:45:08.888Z,4.30
2023-05-11T10:55:28.583Z,5.30
2023-05-11T11:06:36.084Z,4.30
2023-05-11T11:17:15.658Z,6.20
2023-05-11T11:27:19.248Z,4.10
2023-05-11T11:37:24.190Z,4.80
2023-05-11T11:47:27.996Z,6.50
2023-05-11T11:57:34.400Z,4.80
2023-05-11T12:08:18.261Z,6.20
2023-05-11T12:18:22.226Z,7.90
2023-05-11T12:28:50.837Z,6.20
2023-05-11T12:39:57.610Z,5.30
2023-05-11T12:50:01.642Z,4.80
2023-05-11T13:00:14.172Z,6.40
2023-05-11T13:10:24.504Z,5.30
2023-05-11T13:20:30.632Z,13.80
2023-05-11T13:31:40.565Z,10.00
2023-05-11T13:43:45.172Z,5.70
2023-05-11T13:53:51.077Z,6.70
2023-05-11T14:03:56.030Z,6.00
2023-05-11T14:14:01.574Z,6.70
2023-05-11T14:24:12.125Z,6.60
2023-05-11T14:34:16.350Z,5.30
2023-05-11T14:44:26.291Z,6.00
2023-05-11T14:54:30.588Z,6.10
2023-05-11T15:05:34.818Z,7.10
2023-05-11T15:15:38.463Z,5.50
2023-05-11T15:26:23.114Z,4.70
2023-05-11T15:36:29.750Z,5.00
2023-05-11T15:46:36.910Z,6.80
2023-05-11T15:56:40.722Z,4.00
2023-05-11T16:07:10.460Z,7.20
2023-05-11T16:17:14.353Z,8.10
2023-05-11T16:27:22.785Z,7.70
2023-05-11T16:37:26.554Z,5.80
2023-05-11T16:47:30.379Z,5.70
2023-05-11T16:57:36.970Z,7.70
2023-05-11T17:07:42.893Z,6.40
2023-05-11T17:17:46.455Z,6.30
2023-05-11T17:27:50.122Z,11.10
2023-05-11T17:38:34.105Z,11.20
2023-05-11T17:48:37.940Z,11.20
2023-05-11T17:58:43.299Z,9.00
2023-05-11T18:08:46.937Z,11.90
2023-05-11T18:19:10.908Z,8.80
2023-05-11T18:30:15.762Z,16.10
2023-05-11T18:40:20.140Z,23.40
2023-05-11T18:50:24.619Z,11.50
2023-05-11T19:00:28.498Z,29.40
2023-05-11T19:10:32.097Z,20.30
2023-05-11T19:20:40.395Z,20.00
2023-05-11T19:30:44.808Z,15.70
2023-05-11T19:40:56.557Z,18.30
2023-05-11T19:51:01.395Z,20.00
2023-05-11T20:01:05.480Z,26.10
2023-05-11T20:11:09.583Z,20.30
2023-05-11T20:21:19.497Z,17.10
2023-05-11T20:32:27.770Z,18.40
2023-05-11T20:43:43.679Z,15.50
2023-05-11T20:54:52.808Z,12.60
2023-05-11T21:15:31.857Z,11.60
2023-05-11T21:25:43.428Z,10.00
2023-05-11T21:35:49.650Z,9.20
2023-05-11T21:47:02.895Z,9.20
2023-05-11T21:57:09.524Z,9.20
2023-05-11T22:07:16.179Z,11.80
2023-05-11T22:18:26.304Z,8.50
2023-05-11T22:29:37.063Z,9.00
2023-05-11T22:39:46.631Z,10.80
2023-05-11T22:49:53.660Z,9.70
2023-05-11T22:59:59.870Z,9.90
2023-05-11T23:11:08.286Z,9.50
2023-05-11T23:21:39.256Z,8.50
2023-05-11T23:31:45.228Z,8.90
2023-05-11T23:41:52.697Z,9.10
2023-05-11T23:51:57.363Z,8.60
